createdAt,value
2023-01-03T00:00:59.640Z,12.00
2023-01-03T00:03:26.162Z,15.00
2023-01-03T00:05:52.619Z,11.50
2023-01-03T00:08:19.046Z,10.50
2023-01-03T00:10:47.340Z,11.60
2023-01-03T00:15:59.712Z,12.50
2023-01-03T00:18:26.267Z,12.00
2023-01-03T00:20:54.603Z,13.60
2023-01-03T00:23:22.954Z,14.20
2023-01-03T00:25:51.301Z,14.00
2023-01-03T00:31:04.056Z,13.00
2023-01-03T00:33:33.298Z,12.50
2023-01-03T00:35:59.840Z,12.00
2023-01-03T00:38:28.170Z,10.40
2023-01-03T00:40:56.493Z,10.80
2023-01-03T00:46:17.214Z,12.00
2023-01-03T00:48:45.599Z,12.40
2023-01-03T00:51:13.922Z,12.60
2023-01-03T00:53:40.444Z,13.00
2023-01-03T00:56:08.765Z,12.60
2023-01-03T01:01:23.857Z,11.80
2023-01-03T01:03:50.501Z,12.50
2023-01-03T01:06:17.802Z,11.50
2023-01-03T01:08:47.748Z,12.57
2023-01-03T01:11:14.269Z,11.50
2023-01-03T01:16:27.712Z,11.17
2023-01-03T01:18:56.942Z,11.33
2023-01-03T01:21:25.249Z,12.80
2023-01-03T01:23:54.456Z,13.00
2023-01-03T01:26:20.903Z,13.00
2023-01-03T01:31:31.390Z,11.00
2023-01-03T01:33:57.888Z,13.00
2023-01-03T01:36:24.370Z,12.00
2023-01-03T01:38:53.582Z,12.00
2023-01-03T01:41:20.063Z,13.00
2023-01-03T01:46:42.272Z,14.00
2023-01-03T01:49:10.633Z,12.60
2023-01-03T01:51:38.960Z,12.60
2023-01-03T01:54:07.260Z,12.80
2023-01-03T01:56:33.732Z,11.00
2023-01-03T02:01:54.711Z,9.50
2023-01-03T02:04:21.205Z,10.00
2023-01-03T02:06:49.548Z,12.00
2023-01-03T02:09:16.017Z,12.00
2023-01-03T02:11:42.488Z,11.00
2023-01-03T02:17:07.671Z,11.80
2023-01-03T02:19:34.106Z,7.67
2023-01-03T02:22:00.566Z,11.50
2023-01-03T02:24:27.837Z,10.00
2023-01-03T02:26:56.193Z,13.20
2023-01-03T02:32:08.563Z,13.00
2023-01-03T02:34:35.869Z,11.00
2023-01-03T02:37:04.225Z,11.20
2023-01-03T02:39:31.475Z,8.25
2023-01-03T02:41:59.786Z,12.00
2023-01-03T02:47:22.239Z,11.80
2023-01-03T02:49:51.442Z,10.33
2023-01-03T02:52:18.719Z,9.25
2023-01-03T02:54:45.189Z,12.50
2023-01-03T02:57:13.513Z,11.00
2023-01-03T03:02:34.899Z,10.33
2023-01-03T03:05:01.531Z,9.67
2023-01-03T03:07:27.973Z,10.33
2023-01-03T03:09:54.491Z,11.50
2023-01-03T03:12:21.781Z,11.00
2023-01-03T03:17:32.938Z,10.25
2023-01-03T03:20:04.553Z,11.50
2023-01-03T03:22:32.869Z,10.00
2023-01-03T03:25:01.190Z,11.00
2023-01-03T03:27:27.618Z,10.67
2023-01-03T03:32:50.587Z,7.67
2023-01-03T03:35:17.848Z,8.50
2023-01-03T03:37:44.311Z,11.00
2023-01-03T03:40:10.773Z,10.00
2023-01-03T03:42:37.212Z,9.50
2023-01-03T03:47:57.691Z,9.00
2023-01-03T03:50:24.145Z,5.00
2023-01-03T03:52:51.395Z,10.50
2023-01-03T03:55:17.848Z,14.00
2023-01-03T03:57:44.241Z,7.00
2023-01-03T04:02:55.670Z,9.75
2023-01-03T04:05:22.141Z,8.33
2023-01-03T04:07:48.541Z,8.00
2023-01-03T04:10:14.978Z,12.00
2023-01-03T04:12:42.225Z,9.00
2023-01-03T04:18:02.799Z,7.33
2023-01-03T04:20:30.118Z,10.75
2023-01-03T04:22:56.511Z,7.67
2023-01-03T04:25:22.894Z,8.33
2023-01-03T04:27:49.282Z,6.00
2023-01-03T04:32:59.685Z,5.00
2023-01-03T04:35:26.032Z,5.00
2023-01-03T04:37:52.466Z,6.33
2023-01-03T04:40:19.705Z,5.00
2023-01-03T04:42:46.065Z,7.00
2023-01-03T04:48:06.573Z,4.00
2023-01-03T04:50:32.971Z,4.00
2023-01-03T04:52:59.333Z,5.67
2023-01-03T04:55:25.697Z,1.33
2023-01-03T04:57:52.105Z,4.00
2023-01-03T05:03:12.276Z,3.00
2023-01-03T05:05:38.668Z,4.33
2023-01-03T05:08:05.060Z,4.00
2023-01-03T05:10:31.485Z,3.67
2023-01-03T05:12:57.862Z,3.00
2023-01-03T05:18:08.036Z,4.00
2023-01-03T05:20:34.450Z,3.00
2023-01-03T05:23:00.825Z,3.00
2023-01-03T05:25:27.240Z,4.67
2023-01-03T05:27:53.579Z,1.00
2023-01-03T05:30:19.984Z,2.33
2023-01-03T05:32:46.352Z,2.67
2023-01-03T05:35:12.747Z,3.33
2023-01-03T05:37:39.211Z,3.00
2023-01-03T05:40:05.611Z,3.00
2023-01-03T05:42:31.995Z,2.33
2023-01-03T05:44:58.397Z,3.00
2023-01-03T05:47:24.815Z,3.00
2023-01-03T05:49:51.255Z,4.00
2023-01-03T05:52:18.482Z,3.00
2023-01-03T05:54:44.832Z,2.00
2023-01-03T05:57:11.248Z,2.00
2023-01-03T05:59:37.597Z,3.00
2023-01-03T06:02:04.050Z,3.00
2023-01-03T06:04:30.643Z,3.00
2023-01-03T06:06:57.001Z,2.67
2023-01-03T06:09:23.376Z,3.00
2023-01-03T06:11:49.737Z,2.00
2023-01-03T06:14:16.109Z,5.00
2023-01-03T06:16:42.621Z,4.00
2023-01-03T06:19:09.917Z,4.25
2023-01-03T06:21:36.285Z,4.33
2023-01-03T06:24:02.769Z,16.50
2023-01-03T06:26:29.276Z,15.00
2023-01-03T06:28:55.725Z,12.50
2023-01-03T06:31:23.091Z,11.33
2023-01-03T06:33:50.416Z,11.33
2023-01-03T06:36:19.660Z,9.83
2023-01-03T06:38:46.133Z,10.50
2023-01-03T06:41:12.563Z,10.00
2023-01-03T06:43:39.819Z,9.25
2023-01-03T06:46:06.311Z,10.00
2023-01-03T06:51:29.561Z,8.25
2023-01-03T06:53:56.853Z,9.50
2023-01-03T06:56:23.411Z,9.33
2023-01-03T06:58:50.722Z,8.75
2023-01-03T07:01:17.192Z,8.00
2023-01-03T07:06:27.849Z,8.00
2023-01-03T07:08:54.258Z,9.00
2023-01-03T07:11:21.579Z,10.75
2023-01-03T07:13:47.955Z,7.67
2023-01-03T07:16:14.618Z,7.67
2023-01-03T07:21:25.048Z,5.00
2023-01-03T07:23:51.427Z,6.00
2023-01-03T07:26:17.875Z,4.00
2023-01-03T07:28:44.255Z,5.00
2023-01-03T07:31:10.678Z,5.67
2023-01-03T07:36:30.778Z,5.00
2023-01-03T07:38:57.205Z,5.00
2023-01-03T07:41:23.585Z,5.00
2023-01-03T07:43:50.003Z,4.00
2023-01-03T07:46:16.494Z,4.67
2023-01-03T07:51:26.945Z,3.33
2023-01-03T07:53:53.328Z,4.00
2023-01-03T07:56:20.960Z,3.67
2023-01-03T07:58:47.336Z,4.00
2023-01-03T08:01:13.916Z,3.00
2023-01-03T08:06:34.503Z,3.00
2023-01-03T08:09:05.898Z,4.00
2023-01-03T08:11:33.120Z,3.33
2023-01-03T08:13:59.707Z,4.67
2023-01-03T08:16:26.120Z,4.00
2023-01-03T08:21:46.462Z,3.67
2023-01-03T08:24:13.133Z,4.00
2023-01-03T08:26:39.756Z,4.00
2023-01-03T08:29:06.493Z,3.67
2023-01-03T08:31:33.203Z,4.33
2023-01-03T08:36:43.923Z,3.00
2023-01-03T08:39:10.418Z,3.00
2023-01-03T08:41:37.034Z,5.33
2023-01-03T08:44:03.664Z,5.00
2023-01-03T08:46:30.410Z,5.33
2023-01-03T08:51:41.067Z,4.67
2023-01-03T08:54:07.823Z,3.33
2023-01-03T08:56:34.562Z,5.00
2023-01-03T08:59:01.285Z,3.67
2023-01-03T09:01:28.114Z,5.67
2023-01-03T09:06:49.562Z,7.50
2023-01-03T09:09:17.954Z,11.20
2023-01-03T09:11:44.407Z,9.50
2023-01-03T09:14:11.715Z,10.75
2023-01-03T09:16:38.242Z,11.00
2023-01-03T09:21:49.309Z,9.00
2023-01-03T09:24:15.808Z,9.50
2023-01-03T09:26:42.366Z,11.50
2023-01-03T09:29:08.838Z,10.50
2023-01-03T09:31:35.453Z,8.00
2023-01-03T09:36:55.674Z,11.67
2023-01-03T09:39:22.057Z,6.00
2023-01-03T09:41:49.338Z,7.75
2023-01-03T09:44:15.719Z,6.33
2023-01-03T09:46:42.141Z,6.67
2023-01-03T09:51:52.313Z,7.67
2023-01-03T09:54:18.732Z,7.00
2023-01-03T09:56:45.140Z,8.00
2023-01-03T09:59:12.372Z,5.25
2023-01-03T10:01:38.890Z,5.00
2023-01-03T10:06:59.249Z,3.67
2023-01-03T10:09:28.418Z,0.00
2023-01-03T10:11:54.801Z,4.00
2023-01-03T10:14:21.166Z,5.00
2023-01-03T10:16:47.643Z,4.00
2023-01-03T10:22:27.259Z,2.67
2023-01-03T10:24:53.618Z,2.67
2023-01-03T10:27:20.105Z,3.00
2023-01-03T10:29:46.484Z,3.00
2023-01-03T10:32:12.949Z,2.00
2023-01-03T10:37:33.286Z,2.00
2023-01-03T10:39:59.701Z,2.67
2023-01-03T10:42:28.861Z,3.00
2023-01-03T10:44:55.201Z,1.00
2023-01-03T10:47:21.595Z,1.67
2023-01-03T10:52:31.953Z,2.00
2023-01-03T10:54:58.309Z,1.67
2023-01-03T10:57:24.739Z,3.00
2023-01-03T10:59:51.161Z,4.00
2023-01-03T11:02:17.707Z,3.00
2023-01-03T11:04:44.255Z,2.00
2023-01-03T11:07:10.634Z,2.33
2023-01-03T11:09:36.990Z,2.00
2023-01-03T11:12:03.364Z,2.00
2023-01-03T11:14:29.742Z,2.67
2023-01-03T11:16:56.176Z,1.00
2023-01-03T11:19:22.617Z,2.00
2023-01-03T11:21:48.987Z,1.33
2023-01-03T11:24:15.511Z,2.33
2023-01-03T11:26:41.913Z,1.33
2023-01-03T11:29:08.322Z,2.33
2023-01-03T11:31:34.865Z,3.33
2023-01-03T11:34:01.286Z,3.00
2023-01-03T11:36:30.449Z,2.17
2023-01-03T11:38:56.977Z,2.00
2023-01-03T11:41:23.366Z,4.67
2023-01-03T11:43:49.733Z,3.33
2023-01-03T11:46:16.314Z,4.00
2023-01-03T11:48:42.774Z,4.00
2023-01-03T11:51:09.134Z,3.33
2023-01-03T11:53:35.555Z,3.67
2023-01-03T11:56:01.946Z,4.67
2023-01-03T11:58:28.368Z,2.33
2023-01-03T12:00:57.514Z,3.33
2023-01-03T12:03:23.979Z,4.00
2023-01-03T12:05:50.431Z,4.00
2023-01-03T12:08:16.861Z,4.00
2023-01-03T12:10:43.454Z,3.00
2023-01-03T12:13:09.878Z,3.00
2023-01-03T12:15:36.269Z,2.00
2023-01-03T12:18:02.659Z,2.00
2023-01-03T12:20:29.914Z,2.75
2023-01-03T12:25:40.296Z,6.00
2023-01-03T12:28:06.670Z,5.00
2023-01-03T12:30:33.078Z,4.00
2023-01-03T12:32:59.525Z,4.33
2023-01-03T12:35:25.908Z,4.00
2023-01-03T12:40:35.954Z,7.67
2023-01-03T12:43:02.368Z,9.00
2023-01-03T12:45:34.480Z,11.80
2023-01-03T12:48:01.334Z,12.00
2023-01-03T12:50:27.823Z,21.00
2023-01-03T12:55:49.574Z,59.00
2023-01-03T12:58:18.778Z,6.33
2023-01-03T13:00:45.279Z,52.00
2023-01-03T13:03:11.991Z,47.00
2023-01-03T13:05:39.677Z,45.33
2023-01-03T13:11:00.218Z,37.50
2023-01-03T13:13:27.669Z,34.00
2023-01-03T13:15:55.195Z,29.00
2023-01-03T13:18:21.776Z,25.00
2023-01-03T13:20:50.352Z,22.00
2023-01-03T13:26:01.369Z,19.50
2023-01-03T13:28:27.868Z,12.00
2023-01-03T13:30:55.216Z,12.33
2023-01-03T13:33:24.461Z,11.00
2023-01-03T13:35:50.931Z,12.00
2023-01-03T13:41:19.497Z,10.00
2023-01-03T13:43:46.128Z,7.00
2023-01-03T13:46:13.476Z,7.00
2023-01-03T13:48:39.974Z,10.00
2023-01-03T13:51:06.407Z,7.00
2023-01-03T13:56:26.575Z,6.00
2023-01-03T13:58:52.994Z,5.33
2023-01-03T14:01:19.536Z,6.00
2023-01-03T14:03:46.163Z,5.00
2023-01-03T14:06:12.592Z,4.00
2023-01-03T14:11:22.833Z,4.00
2023-01-03T14:13:49.199Z,1.67
2023-01-03T14:16:15.683Z,4.67
2023-01-03T14:18:42.111Z,2.00
2023-01-03T14:21:14.640Z,3.33
2023-01-03T14:26:28.249Z,5.00
2023-01-03T14:28:54.641Z,4.00
2023-01-03T14:31:21.061Z,4.33
2023-01-03T14:33:47.484Z,4.33
2023-01-03T14:36:13.964Z,5.33
2023-01-03T14:41:34.524Z,6.00
2023-01-03T14:44:00.987Z,5.00
2023-01-03T14:46:27.646Z,6.00
2023-01-03T14:48:59.467Z,5.67
2023-01-03T14:51:29.297Z,8.67
2023-01-03T14:56:39.666Z,7.00
2023-01-03T14:59:06.083Z,6.00
2023-01-03T15:01:32.551Z,6.00
2023-01-03T15:03:59.070Z,6.00
2023-01-03T15:06:25.496Z,8.00
2023-01-03T15:11:46.078Z,6.00
2023-01-03T15:14:12.503Z,5.67
2023-01-03T15:16:38.999Z,4.33
2023-01-03T15:19:06.318Z,6.00
2023-01-03T15:21:32.731Z,5.33
2023-01-03T15:26:44.012Z,9.50
2023-01-03T15:29:10.506Z,7.33
2023-01-03T15:31:37.007Z,6.33
2023-01-03T15:34:03.575Z,6.00
2023-01-03T15:36:30.002Z,5.00
2023-01-03T15:41:40.479Z,3.00
2023-01-03T15:44:06.877Z,4.00
2023-01-03T15:46:33.356Z,3.00
2023-01-03T15:48:59.750Z,2.67
2023-01-03T15:51:26.188Z,4.00
2023-01-03T15:56:36.704Z,5.00
2023-01-03T15:59:07.100Z,5.00
2023-01-03T16:01:33.633Z,5.00
2023-01-03T16:04:00.171Z,4.67
2023-01-03T16:06:26.764Z,5.00
2023-01-03T16:08:53.162Z,5.00
2023-01-03T16:11:20.558Z,4.33
2023-01-03T16:13:47.220Z,5.33
2023-01-03T16:16:13.668Z,5.00
2023-01-03T16:18:40.120Z,6.00
2023-01-03T16:21:06.552Z,5.00
2023-01-03T16:23:32.944Z,5.33
2023-01-03T16:25:59.373Z,5.67
2023-01-03T16:28:25.824Z,7.33
2023-01-03T16:30:52.332Z,7.00
2023-01-03T16:33:18.758Z,6.33
2023-01-03T16:35:45.477Z,6.00
2023-01-03T16:38:11.882Z,5.00
2023-01-03T16:40:38.272Z,5.00
2023-01-03T16:43:04.774Z,5.00
2023-01-03T16:45:31.251Z,4.67
2023-01-03T16:47:57.703Z,5.00
2023-01-03T16:50:24.158Z,7.33
2023-01-03T16:52:50.584Z,6.00
2023-01-03T16:55:17.021Z,4.67
2023-01-03T16:57:46.317Z,5.00
2023-01-03T17:00:16.790Z,5.00
2023-01-03T17:02:43.456Z,4.00
2023-01-03T17:05:10.026Z,6.00
2023-01-03T17:07:36.406Z,8.33
2023-01-03T17:10:03.735Z,7.50
2023-01-03T17:12:30.149Z,5.00
2023-01-03T17:14:56.521Z,6.00
2023-01-03T17:17:22.946Z,6.00
2023-01-03T17:20:06.323Z,7.67
2023-01-03T17:22:33.049Z,7.00
2023-01-03T17:24:59.457Z,6.00
2023-01-03T17:30:19.758Z,5.67
2023-01-03T17:32:46.171Z,6.00
2023-01-03T17:35:12.628Z,8.00
2023-01-03T17:38:05.732Z,7.33
2023-01-03T17:40:32.931Z,8.00
2023-01-03T17:43:00.279Z,9.00
2023-01-03T17:45:26.701Z,6.00
2023-01-03T17:47:53.114Z,5.67
2023-01-03T17:50:21.448Z,11.20
2023-01-03T17:52:52.008Z,8.00
2023-01-03T17:55:22.022Z,9.00
2023-01-03T18:00:34.454Z,9.50
2023-01-03T18:03:01.261Z,11.00
2023-01-03T18:05:28.190Z,10.33
2023-01-03T18:07:54.933Z,9.50
2023-01-03T18:10:21.363Z,9.33
2023-01-03T18:15:43.491Z,7.33
2023-01-03T18:18:10.792Z,6.75
2023-01-03T18:20:37.240Z,5.33
2023-01-03T18:23:03.852Z,5.33
2023-01-03T18:25:30.254Z,6.00
2023-01-03T18:30:40.840Z,5.00
2023-01-03T18:33:07.280Z,5.00
2023-01-03T18:35:37.837Z,3.67
2023-01-03T18:38:04.622Z,3.00
2023-01-03T18:40:31.020Z,3.00
2023-01-03T18:45:41.470Z,3.00
2023-01-03T18:48:07.893Z,3.00
2023-01-03T18:50:34.384Z,3.00
2023-01-03T18:53:00.836Z,3.00
2023-01-03T18:55:27.259Z,3.67
2023-01-03T19:00:47.653Z,3.00
2023-01-03T19:03:14.253Z,2.33
2023-01-03T19:05:40.739Z,2.00
2023-01-03T19:08:07.149Z,2.00
2023-01-03T19:10:33.542Z,2.00
2023-01-03T19:15:43.922Z,1.00
2023-01-03T19:18:10.320Z,1.33
2023-01-03T19:20:36.731Z,1.00
2023-01-03T19:23:03.411Z,2.00
2023-01-03T19:25:29.797Z,2.67
2023-01-03T19:30:50.090Z,1.67
2023-01-03T19:33:16.683Z,2.00
2023-01-03T19:35:43.104Z,3.00
2023-01-03T19:38:09.598Z,1.00
2023-01-03T19:40:36.000Z,3.67
2023-01-03T19:45:46.300Z,3.00
2023-01-03T19:48:12.665Z,2.00
2023-01-03T19:50:39.081Z,2.00
2023-01-03T19:53:05.563Z,1.00
2023-01-03T19:55:31.917Z,2.67
2023-01-03T20:00:43.187Z,35.33
2023-01-03T20:03:09.801Z,24.50
2023-01-03T20:05:36.549Z,22.50
2023-01-03T20:08:09.238Z,14.00
2023-01-03T20:10:39.382Z,18.67
2023-01-03T20:15:50.593Z,16.33
2023-01-03T20:18:20.767Z,11.71
2023-01-03T20:20:47.244Z,11.00
2023-01-03T20:23:16.669Z,10.83
2023-01-03T20:25:43.170Z,11.00
2023-01-03T20:31:07.478Z,7.33
2023-01-03T20:33:34.131Z,10.50
2023-01-03T20:36:14.478Z,10.00
2023-01-03T20:38:46.452Z,10.67
2023-01-03T20:41:12.853Z,7.00
2023-01-03T20:46:23.338Z,8.00
2023-01-03T20:48:49.746Z,8.67
2023-01-03T20:51:16.223Z,7.33
2023-01-03T20:53:43.208Z,6.67
2023-01-03T20:56:10.743Z,5.67
2023-01-03T21:01:21.436Z,6.00
2023-01-03T21:03:48.131Z,4.33
2023-01-03T21:06:14.702Z,6.00
2023-01-03T21:08:41.112Z,5.00
2023-01-03T21:11:07.490Z,5.33
2023-01-03T21:16:27.747Z,5.00
2023-01-03T21:18:54.416Z,5.00
2023-01-03T21:21:21.201Z,4.00
2023-01-03T21:23:47.705Z,3.33
2023-01-03T21:26:14.091Z,4.00
2023-01-03T21:31:24.229Z,5.33
2023-01-03T21:33:50.645Z,4.00
2023-01-03T21:36:22.751Z,5.00
2023-01-03T21:38:49.682Z,5.00
2023-01-03T21:41:16.088Z,5.00
2023-01-03T21:46:27.621Z,10.50
2023-01-03T21:48:55.018Z,10.75
2023-01-03T21:51:35.077Z,27.00
2023-01-03T21:54:05.496Z,13.67
2023-01-03T21:56:32.431Z,12.00
2023-01-03T21:58:58.977Z,10.00
2023-01-03T22:01:25.443Z,7.67
2023-01-03T22:03:51.947Z,6.33
2023-01-03T22:06:18.372Z,6.00
2023-01-03T22:08:44.747Z,6.00
2023-01-03T22:11:12.141Z,20.50
2023-01-03T22:13:39.540Z,20.33
2023-01-03T22:16:06.107Z,20.00
2023-01-03T22:18:32.654Z,17.00
2023-01-03T22:20:59.974Z,19.00
2023-01-03T22:23:27.262Z,13.33
2023-01-03T22:25:53.739Z,12.00
2023-01-03T22:28:22.134Z,13.00
2023-01-03T22:30:48.544Z,9.33
2023-01-03T22:33:14.974Z,12.00
2023-01-03T22:35:43.294Z,12.20
2023-01-03T22:38:10.559Z,8.00
2023-01-03T22:40:37.060Z,7.67
2023-01-03T22:43:03.437Z,8.33
2023-01-03T22:45:29.939Z,7.67
2023-01-03T22:47:56.353Z,6.00
2023-01-03T22:50:22.716Z,6.00
2023-01-03T22:52:49.152Z,5.00
2023-01-03T22:55:15.550Z,5.00
2023-01-03T22:57:41.910Z,4.00
2023-01-03T23:00:08.330Z,5.67
2023-01-03T23:02:41.009Z,5.33
2023-01-03T23:05:08.374Z,7.67
2023-01-03T23:07:34.756Z,6.00
2023-01-03T23:10:01.106Z,6.00
2023-01-03T23:12:30.293Z,2.00
2023-01-03T23:14:56.660Z,6.00
2023-01-03T23:17:23.057Z,6.00
2023-01-03T23:19:52.239Z,9.00
2023-01-03T23:22:19.531Z,12.00
2023-01-03T23:24:45.984Z,10.50
2023-01-03T23:27:12.396Z,10.50
2023-01-03T23:29:38.901Z,9.00
2023-01-03T23:32:05.415Z,6.67
2023-01-03T23:34:31.811Z,8.67
2023-01-03T23:36:58.161Z,4.67
2023-01-03T23:39:24.535Z,6.00
2023-01-03T23:41:50.902Z,5.00
2023-01-03T23:44:17.317Z,6.00
2023-01-03T23:46:43.678Z,5.33
2023-01-03T23:49:10.073Z,6.00
2023-01-03T23:51:36.766Z,5.00
2023-01-03T23:54:03.219Z,8.33
2023-01-03T23:56:29.603Z,4.00
2023-01-03T23:58:55.960Z,6.00
